createdAt,value
2019-04-11T00:02:00.491Z,11.67
2019-04-11T00:04:32.306Z,12.70
2019-04-11T00:07:04.029Z,12.03
2019-04-11T00:09:35.143Z,10.70
2019-04-11T00:12:06.886Z,12.37
2019-04-11T00:14:38.087Z,10.03
2019-04-11T00:17:09.983Z,11.37
2019-04-11T00:19:41.167Z,11.80
2019-04-11T00:22:13.179Z,9.07
2019-04-11T00:24:45.187Z,12.77
2019-04-11T00:27:17.120Z,11.27
2019-04-11T00:29:48.399Z,12.30
2019-04-11T00:32:19.553Z,9.23
2019-04-11T00:34:51.176Z,10.37
2019-04-11T00:37:23.203Z,11.70
2019-04-11T00:40:04.551Z,10.93
2019-04-11T00:42:36.727Z,11.00
2019-04-11T00:45:09.603Z,12.77
2019-04-11T00:47:41.558Z,10.17
2019-04-11T00:50:12.956Z,15.30
2019-04-11T00:52:45.428Z,9.30
2019-04-11T00:55:17.819Z,11.63
2019-04-11T00:57:49.475Z,13.10
2019-04-11T01:00:22.859Z,13.33
2019-04-11T01:02:54.020Z,13.30
2019-04-11T01:05:25.648Z,14.30
2019-04-11T01:07:57.660Z,14.23
2019-04-11T01:10:29.898Z,10.50
2019-04-11T01:13:01.054Z,11.43
2019-04-11T01:15:32.391Z,17.63
2019-04-11T01:18:03.681Z,13.17
2019-04-11T01:20:35.517Z,19.43
2019-04-11T01:23:06.917Z,14.03
2019-04-11T01:25:38.923Z,13.53
2019-04-11T01:28:10.288Z,17.10
2019-04-11T01:31:03.629Z,15.20
2019-04-11T01:33:35.828Z,17.73
2019-04-11T01:36:07.229Z,16.07
2019-04-11T01:38:44.235Z,16.53
2019-04-11T01:41:15.472Z,17.07
2019-04-11T01:43:53.396Z,15.33
2019-04-11T01:46:20.121Z,21.27
2019-04-11T01:49:14.218Z,19.33
2019-04-11T01:51:45.580Z,18.90
2019-04-11T01:54:16.792Z,17.50
2019-04-11T01:56:48.091Z,16.23
2019-04-11T01:59:19.483Z,18.40
2019-04-11T02:02:09.709Z,18.20
2019-04-11T02:04:49.245Z,18.53
2019-04-11T02:07:20.626Z,19.03
2019-04-11T02:09:52.596Z,18.03
2019-04-11T02:12:23.822Z,16.30
2019-04-11T02:14:55.566Z,18.70
2019-04-11T02:17:26.975Z,16.63
2019-04-11T02:19:58.703Z,13.93
2019-04-11T02:22:50.704Z,15.67
2019-04-11T02:25:40.884Z,15.23
2019-04-11T02:28:14.740Z,18.40
2019-04-11T02:30:50.983Z,19.17
2019-04-11T02:33:21.862Z,18.13
2019-04-11T02:35:54.615Z,20.37
2019-04-11T02:38:28.455Z,17.17
2019-04-11T02:41:01.203Z,18.27
2019-04-11T02:43:34.096Z,17.33
2019-04-11T02:46:17.091Z,18.10
2019-04-11T02:48:40.469Z,22.33
2019-04-11T02:51:12.479Z,20.33
2019-04-11T02:53:45.175Z,17.70
2019-04-11T02:56:17.403Z,15.53
2019-04-11T02:58:50.314Z,20.97
2019-04-11T03:01:21.996Z,17.77
2019-04-11T03:03:53.974Z,19.70
2019-04-11T03:06:25.838Z,21.40
2019-04-11T03:08:59.299Z,17.03
2019-04-11T03:11:32.425Z,18.20
2019-04-11T03:14:04.131Z,18.97
2019-04-11T03:16:46.070Z,20.63
2019-04-11T03:19:20.873Z,25.13
2019-04-11T03:21:43.883Z,18.90
2019-04-11T03:24:15.467Z,19.83
2019-04-11T03:26:46.930Z,20.47
2019-04-11T03:29:19.742Z,21.60
2019-04-11T03:32:32.091Z,22.90
2019-04-11T03:35:11.942Z,22.83
2019-04-11T03:39:50.834Z,19.40
2019-04-11T03:42:21.928Z,19.17
2019-04-11T03:44:42.337Z,24.20
2019-04-11T03:47:23.703Z,20.30
2019-04-11T03:49:51.029Z,23.07
2019-04-11T03:52:17.204Z,17.83
2019-04-11T03:54:49.551Z,20.23
2019-04-11T03:57:21.513Z,18.80
2019-04-11T03:59:54.338Z,19.03
2019-04-11T04:02:26.262Z,20.03
2019-04-11T04:04:58.920Z,21.07
2019-04-11T04:07:31.999Z,21.13
2019-04-11T04:10:05.162Z,19.87
2019-04-11T04:12:37.766Z,18.63
2019-04-11T04:15:42.205Z,19.23
2019-04-11T04:18:24.701Z,19.77
2019-04-11T04:21:17.424Z,22.23
2019-04-11T04:23:51.912Z,21.47
2019-04-11T04:26:24.999Z,20.37
2019-04-11T04:28:57.656Z,17.60
2019-04-11T04:31:28.785Z,20.43
2019-04-11T04:34:01.856Z,21.73
2019-04-11T04:36:33.347Z,18.17
2019-04-11T04:39:06.452Z,25.17
2019-04-11T04:41:47.072Z,20.90
2019-04-11T04:44:14.418Z,21.03
2019-04-11T04:46:58.672Z,21.50
2019-04-11T04:49:18.624Z,21.40
2019-04-11T04:51:51.145Z,21.27
2019-04-11T04:54:23.958Z,20.13
2019-04-11T04:56:55.240Z,16.00
2019-04-11T04:59:27.883Z,22.17
2019-04-11T05:02:01.753Z,20.83
2019-04-11T05:04:33.762Z,25.40
2019-04-11T05:07:05.357Z,21.20
2019-04-11T05:09:38.361Z,21.70
2019-04-11T05:12:09.973Z,18.50
2019-04-11T05:14:41.078Z,22.63
2019-04-11T05:17:12.876Z,19.03
2019-04-11T05:19:46.526Z,19.87
2019-04-11T05:22:18.936Z,24.50
2019-04-11T05:24:50.115Z,20.63
2019-04-11T05:27:21.208Z,20.03
2019-04-11T05:29:53.613Z,19.53
2019-04-11T05:32:27.100Z,20.27
2019-04-11T05:34:58.487Z,20.57
2019-04-11T05:37:31.328Z,15.97
2019-04-11T05:40:03.075Z,16.83
2019-04-11T05:42:35.463Z,18.47
2019-04-11T05:45:11.631Z,19.10
2019-04-11T05:47:39.654Z,23.93
2019-04-11T05:50:29.893Z,23.33
2019-04-11T05:53:03.778Z,20.20
2019-04-11T05:55:42.131Z,17.00
2019-04-11T05:58:14.387Z,19.53
2019-04-11T06:01:22.289Z,17.90
2019-04-11T06:03:57.357Z,17.83
2019-04-11T06:07:00.129Z,16.80
2019-04-11T06:09:36.047Z,19.90
2019-04-11T06:12:33.781Z,15.53
2019-04-11T06:15:13.994Z,17.27
2019-04-11T06:17:46.183Z,14.37
2019-04-11T06:20:45.438Z,18.47
2019-04-11T06:23:35.095Z,18.80
2019-04-11T06:26:18.735Z,16.40
2019-04-11T06:28:53.960Z,18.97
2019-04-11T06:31:45.816Z,20.73
2019-04-11T06:34:17.562Z,17.90
2019-04-11T06:37:13.955Z,14.17
2019-04-11T06:39:51.573Z,17.53
2019-04-11T06:42:45.503Z,22.07
2019-04-11T06:45:35.634Z,15.83
2019-04-11T06:48:26.314Z,14.50
2019-04-11T06:51:02.434Z,20.53
2019-04-11T06:53:40.016Z,14.70
2019-04-11T06:56:45.586Z,14.83
2019-04-11T06:59:20.610Z,16.37
2019-04-11T07:01:53.025Z,14.83
2019-04-11T07:04:30.977Z,14.87
2019-04-11T07:07:04.370Z,13.77
2019-04-11T07:09:45.019Z,13.90
2019-04-11T07:12:20.307Z,11.97
2019-04-11T07:15:12.255Z,13.57
2019-04-11T07:18:01.041Z,12.60
2019-04-11T07:20:52.359Z,17.97
2019-04-11T07:23:43.939Z,15.00
2019-04-11T07:26:37.317Z,12.43
2019-04-11T07:29:27.776Z,11.10
2019-04-11T07:32:18.455Z,12.20
2019-04-11T07:35:08.522Z,10.17
2019-04-11T07:37:44.771Z,10.83
2019-04-11T07:40:35.274Z,10.27
2019-04-11T07:43:31.499Z,12.53
2019-04-11T07:46:25.472Z,9.90
2019-04-11T07:49:00.034Z,10.30
2019-04-11T07:51:40.828Z,10.27
2019-04-11T07:54:22.859Z,12.57
2019-04-11T07:56:57.225Z,10.30
2019-04-11T07:59:47.183Z,10.37
2019-04-11T08:02:37.751Z,10.17
2019-04-11T08:05:30.249Z,9.83
2019-04-11T08:08:21.445Z,10.20
2019-04-11T08:11:02.775Z,9.87
2019-04-11T08:13:54.591Z,14.23
2019-04-11T08:17:03.668Z,14.10
2019-04-11T08:19:53.264Z,11.73
2019-04-11T08:22:45.444Z,10.13
2019-04-11T08:25:47.482Z,11.70
2019-04-11T08:28:18.751Z,13.33
2019-04-11T08:31:13.154Z,10.63
2019-04-11T08:33:44.690Z,9.90
2019-04-11T08:36:34.761Z,12.43
2019-04-11T08:39:14.290Z,11.47
2019-04-11T08:42:07.494Z,9.93
2019-04-11T08:44:41.859Z,11.17
2019-04-11T08:47:18.334Z,12.00
2019-04-11T08:49:52.277Z,12.07
2019-04-11T08:52:42.454Z,13.00
2019-04-11T08:55:48.572Z,11.70
2019-04-11T08:58:22.631Z,18.40
2019-04-11T09:01:00.429Z,11.33
2019-04-11T09:04:00.865Z,10.50
2019-04-11T09:06:28.504Z,16.13
2019-04-11T09:09:17.308Z,12.43
2019-04-11T09:11:51.203Z,14.77
2019-04-11T09:14:41.494Z,12.30
2019-04-11T09:17:30.300Z,12.07
2019-04-11T09:20:21.448Z,13.53
2019-04-11T09:22:57.399Z,13.00
2019-04-11T09:25:48.817Z,13.03
2019-04-11T09:28:37.910Z,12.67
2019-04-11T09:31:41.443Z,11.83
2019-04-11T09:34:30.789Z,11.47
2019-04-11T09:37:06.163Z,14.67
2019-04-11T09:39:59.372Z,11.50
2019-04-11T09:42:53.373Z,13.10
2019-04-11T09:45:50.849Z,14.10
2019-04-11T09:48:31.428Z,11.50
2019-04-11T09:51:21.574Z,16.23
2019-04-11T09:54:15.582Z,11.90
2019-04-11T09:57:04.454Z,12.27
2019-04-11T09:59:56.043Z,12.10
2019-04-11T10:02:58.751Z,16.13
2019-04-11T10:05:49.914Z,12.83
2019-04-11T10:08:35.693Z,12.07
2019-04-11T10:11:26.126Z,12.90
2019-04-11T10:14:02.730Z,11.67
2019-04-11T10:16:52.524Z,12.57
2019-04-11T10:19:42.748Z,11.93
2019-04-11T10:22:48.181Z,12.27
2019-04-11T10:25:30.235Z,12.10
2019-04-11T10:28:30.071Z,13.30
2019-04-11T10:31:10.470Z,12.00
2019-04-11T10:33:59.691Z,11.73
2019-04-11T10:36:55.796Z,12.57
2019-04-11T10:40:00.090Z,11.73
2019-04-11T10:42:32.913Z,12.00
2019-04-11T10:45:24.762Z,12.47
2019-04-11T10:47:58.160Z,11.90
2019-04-11T10:50:46.849Z,11.60
2019-04-11T10:53:18.066Z,11.90
2019-04-11T10:56:10.490Z,10.87
2019-04-11T10:58:59.893Z,12.07
2019-04-11T11:02:00.166Z,12.93
2019-04-11T11:04:38.877Z,13.43
2019-04-11T11:07:16.291Z,10.77
2019-04-11T11:09:54.577Z,11.80
2019-04-11T11:12:47.832Z,11.80
2019-04-11T11:15:27.598Z,11.70
2019-04-11T11:21:03.834Z,12.33
2019-04-11T11:24:00.856Z,10.97
2019-04-11T11:26:37.202Z,11.40
2019-04-11T11:29:45.877Z,12.07
2019-04-11T11:32:25.270Z,12.07
2019-04-11T11:35:15.252Z,10.93
2019-04-11T11:37:49.305Z,12.03
2019-04-11T11:40:42.448Z,11.60
2019-04-11T11:43:23.530Z,11.50
2019-04-11T11:46:26.746Z,10.23
2019-04-11T11:49:29.615Z,12.40
2019-04-11T11:52:07.419Z,10.53
2019-04-11T11:54:43.880Z,10.03
2019-04-11T11:57:20.648Z,10.43
2019-04-11T12:00:03.085Z,10.07
2019-04-11T12:02:51.880Z,10.50
2019-04-11T12:05:30.225Z,9.87
2019-04-11T12:08:13.914Z,10.87
2019-04-11T12:10:51.385Z,10.07
2019-04-11T12:13:45.440Z,10.50
2019-04-11T12:16:26.509Z,10.40
2019-04-11T12:19:20.022Z,10.90
2019-04-11T12:21:51.511Z,10.80
2019-04-11T12:24:27.897Z,11.83
2019-04-11T12:27:20.503Z,10.37
2019-04-11T12:30:10.873Z,9.60
2019-04-11T12:32:48.707Z,9.73
2019-04-11T12:35:35.898Z,9.17
2019-04-11T12:38:16.441Z,9.27
2019-04-11T12:41:24.122Z,10.63
2019-04-11T12:44:18.237Z,9.70
2019-04-11T12:47:07.864Z,9.57
2019-04-11T12:50:01.397Z,9.10
2019-04-11T12:52:50.247Z,9.13
2019-04-11T12:55:29.397Z,9.03
2019-04-11T12:58:11.484Z,8.93
2019-04-11T13:01:04.695Z,9.47
2019-04-11T13:04:06.747Z,9.03
2019-04-11T13:06:55.000Z,31.77
2019-04-11T13:09:37.968Z,11.37
2019-04-11T13:12:12.797Z,8.67
2019-04-11T13:14:51.372Z,8.63
2019-04-11T13:17:27.210Z,9.13
2019-04-11T13:20:16.402Z,9.17
2019-04-11T13:22:48.784Z,11.03
2019-04-11T13:25:51.031Z,9.80
2019-04-11T13:28:22.147Z,9.13
2019-04-11T13:31:15.065Z,9.70
2019-04-11T13:33:46.339Z,8.67
2019-04-11T13:36:37.148Z,9.67
2019-04-11T13:39:08.401Z,9.43
2019-04-11T13:41:58.648Z,8.63
2019-04-11T13:44:35.240Z,8.13
2019-04-11T13:47:40.702Z,8.93
2019-04-11T13:50:16.762Z,9.23
2019-04-11T13:53:15.876Z,9.50
2019-04-11T13:55:47.189Z,8.27
2019-04-11T13:58:47.152Z,8.53
2019-04-11T14:01:18.678Z,8.60
2019-04-11T14:04:08.626Z,9.83
2019-04-11T14:06:40.662Z,8.63
2019-04-11T14:09:22.078Z,8.70
2019-04-11T14:11:55.573Z,9.10
2019-04-11T14:14:29.294Z,8.93
2019-04-11T14:17:06.291Z,8.13
2019-04-11T14:19:55.340Z,9.07
2019-04-11T14:22:31.338Z,8.23
2019-04-11T14:25:24.482Z,8.40
2019-04-11T14:27:58.077Z,8.53
2019-04-11T14:30:53.858Z,8.90
2019-04-11T14:33:27.224Z,9.40
2019-04-11T14:36:17.399Z,8.80
2019-04-11T14:38:52.149Z,8.77
2019-04-11T14:41:47.469Z,9.13
2019-04-11T14:44:19.047Z,11.37
2019-04-11T14:47:24.646Z,8.07
2019-04-11T14:50:01.606Z,9.23
2019-04-11T14:52:54.309Z,8.97
2019-04-11T14:55:26.321Z,8.83
2019-04-11T14:58:17.620Z,9.90
2019-04-11T15:00:48.916Z,8.37
2019-04-11T15:03:49.229Z,15.43
2019-04-11T15:06:26.047Z,11.97
2019-04-11T15:09:22.132Z,8.97
2019-04-11T15:11:56.474Z,8.23
2019-04-11T15:14:48.532Z,8.73
2019-04-11T15:17:24.354Z,8.00
2019-04-11T15:20:04.136Z,11.63
2019-04-11T15:22:57.459Z,13.40
2019-04-11T15:25:59.832Z,10.33
2019-04-11T15:28:37.215Z,8.30
2019-04-11T15:31:26.192Z,10.63
2019-04-11T15:34:14.771Z,8.93
2019-04-11T15:37:15.430Z,12.13
2019-04-11T15:40:11.737Z,11.70
2019-04-11T15:43:20.185Z,10.37
2019-04-11T15:45:56.176Z,8.47
2019-04-11T15:49:01.594Z,9.57
2019-04-11T15:51:40.410Z,7.83
2019-04-11T15:54:34.804Z,8.67
2019-04-11T15:57:37.268Z,8.50
2019-04-11T16:00:31.178Z,8.30
2019-04-11T16:03:13.319Z,7.90
2019-04-11T16:06:09.468Z,12.53
2019-04-11T16:08:52.275Z,7.50
2019-04-11T16:11:51.711Z,13.47
2019-04-11T16:14:35.271Z,15.13
2019-04-11T16:17:34.651Z,11.93
2019-04-11T16:20:17.802Z,8.93
2019-04-11T16:23:16.177Z,9.13
2019-04-11T16:25:54.870Z,8.80
2019-04-11T16:28:55.777Z,9.00
2019-04-11T16:31:32.918Z,12.80
2019-04-11T16:34:10.155Z,9.63
2019-04-11T16:36:52.624Z,7.63
2019-04-11T16:39:47.921Z,9.27
2019-04-11T16:42:35.966Z,8.90
2019-04-11T16:45:27.739Z,9.43
2019-04-11T16:48:05.254Z,8.93
2019-04-11T16:50:36.466Z,8.03
2019-04-11T16:53:10.673Z,8.33
2019-04-11T16:55:43.192Z,10.30
2019-04-11T16:58:17.123Z,9.43
2019-04-11T17:00:52.120Z,8.53
2019-04-11T17:03:19.803Z,9.17
2019-04-11T17:05:58.057Z,7.87
2019-04-11T17:08:51.513Z,9.90
2019-04-11T17:11:22.267Z,8.10
2019-04-11T17:13:57.016Z,10.43
2019-04-11T17:16:29.956Z,10.63
2019-04-11T17:19:02.862Z,9.20
2019-04-11T17:21:42.767Z,8.50
2019-04-11T17:24:06.530Z,12.53
2019-04-11T17:26:38.459Z,13.10
2019-04-11T17:29:11.676Z,9.60
2019-04-11T17:31:45.978Z,8.63
2019-04-11T17:34:17.392Z,10.30
2019-04-11T17:36:48.807Z,7.30
2019-04-11T17:39:20.155Z,9.70
2019-04-11T17:41:51.720Z,9.83
2019-04-11T17:44:22.969Z,9.10
2019-04-11T17:46:56.451Z,21.97
2019-04-11T17:49:27.699Z,8.77
2019-04-11T17:51:58.985Z,8.30
2019-04-11T17:54:30.318Z,12.67
2019-04-11T17:57:01.597Z,9.50
2019-04-11T17:59:32.931Z,7.97
2019-04-11T18:02:10.137Z,9.47
2019-04-11T18:04:39.067Z,8.00
2019-04-11T18:07:10.442Z,8.60
2019-04-11T18:09:42.785Z,8.30
2019-04-11T18:12:14.096Z,8.47
2019-04-11T18:14:45.428Z,9.57
2019-04-11T18:17:17.963Z,8.47
2019-04-11T18:19:49.378Z,8.90
2019-04-11T18:22:20.751Z,11.13
2019-04-11T18:24:52.255Z,9.03
2019-04-11T18:27:23.650Z,9.10
2019-04-11T18:29:54.963Z,9.87
2019-04-11T18:32:26.202Z,11.00
2019-04-11T18:35:01.746Z,9.80
2019-04-11T18:37:32.100Z,10.60
2019-04-11T18:40:08.047Z,13.27
2019-04-11T18:42:37.725Z,10.40
2019-04-11T18:45:10.312Z,11.00
2019-04-11T18:47:42.026Z,11.03
2019-04-11T18:50:15.304Z,9.63
2019-04-11T18:52:48.844Z,10.23
2019-04-11T18:55:20.588Z,10.23
2019-04-11T18:57:51.894Z,10.57
2019-04-11T19:00:24.138Z,9.83
2019-04-11T19:02:55.519Z,13.00
2019-04-11T19:05:29.179Z,12.63
2019-04-11T19:08:03.139Z,11.50
2019-04-11T19:10:35.006Z,11.83
2019-04-11T19:13:06.752Z,10.53
2019-04-11T19:15:40.767Z,15.47
2019-04-11T19:18:15.914Z,10.33
2019-04-11T19:20:45.303Z,11.50
2019-04-11T19:23:16.654Z,9.87
2019-04-11T19:25:48.042Z,10.20
2019-04-11T19:28:24.896Z,12.17
2019-04-11T19:30:58.351Z,12.03
2019-04-11T19:33:34.019Z,11.23
2019-04-11T19:36:04.004Z,11.30
2019-04-11T19:38:43.320Z,12.87
2019-04-11T19:41:17.978Z,12.50
2019-04-11T19:43:49.939Z,12.17
2019-04-11T19:46:21.352Z,13.47
2019-04-11T19:48:55.410Z,11.97
2019-04-11T19:51:28.755Z,11.23
2019-04-11T19:54:02.924Z,10.90
2019-04-11T19:56:50.967Z,12.80
2019-04-11T19:59:22.500Z,12.93
2019-04-11T20:01:53.900Z,13.63
2019-04-11T20:04:26.032Z,12.47
2019-04-11T20:06:57.331Z,15.63
2019-04-11T20:09:28.592Z,11.47
2019-04-11T20:12:00.887Z,12.57
2019-04-11T20:14:34.881Z,13.57
2019-04-11T20:17:09.064Z,13.30
2019-04-11T20:19:39.269Z,14.27
2019-04-11T20:22:11.033Z,16.97
2019-04-11T20:24:45.755Z,12.30
2019-04-11T20:27:15.170Z,15.63
2019-04-11T20:29:51.021Z,21.43
2019-04-11T20:32:19.793Z,12.70
2019-04-11T20:34:51.407Z,13.50
2019-04-11T20:37:24.509Z,13.63
2019-04-11T20:39:55.541Z,25.67
2019-04-11T20:42:26.993Z,13.17
2019-04-11T20:44:59.082Z,16.03
2019-04-11T20:47:31.030Z,13.30
2019-04-11T20:50:07.409Z,14.03
2019-04-11T20:52:35.225Z,15.10
2019-04-11T20:55:09.097Z,18.23
2019-04-11T20:57:40.426Z,14.07
2019-04-11T21:00:13.587Z,19.27
2019-04-11T21:02:45.003Z,16.17
2019-04-11T21:05:16.835Z,13.60
2019-04-11T21:07:48.263Z,13.17
2019-04-11T21:10:19.422Z,15.87
2019-04-11T21:12:51.162Z,16.30
2019-04-11T21:15:22.430Z,13.07
2019-04-11T21:17:56.122Z,16.60
2019-04-11T21:20:26.677Z,13.70
2019-04-11T21:22:57.988Z,11.97
2019-04-11T21:25:29.260Z,20.93
2019-04-11T21:28:00.723Z,15.40
2019-04-11T21:30:33.292Z,13.80
2019-04-11T21:33:04.632Z,13.43
2019-04-11T21:35:35.942Z,14.07
2019-04-11T21:38:07.107Z,13.63
2019-04-11T21:40:38.224Z,14.00
2019-04-11T21:43:09.489Z,15.93
2019-04-11T21:45:40.743Z,14.50
2019-04-11T21:48:12.930Z,14.60
2019-04-11T21:50:49.573Z,19.83
2019-04-11T21:53:35.984Z,14.83
2019-04-11T21:56:00.647Z,14.20
2019-04-11T21:58:31.880Z,17.17
2019-04-11T22:01:08.374Z,17.67
2019-04-11T22:03:39.686Z,19.57
2019-04-11T22:06:11.108Z,17.70
2019-04-11T22:08:42.506Z,17.30
2019-04-11T22:11:13.813Z,16.07
2019-04-11T22:13:44.945Z,15.20
2019-04-11T22:16:16.078Z,14.17
2019-04-11T22:18:47.206Z,15.03
2019-04-11T22:21:18.361Z,12.07
2019-04-11T22:23:49.440Z,12.07
2019-04-11T22:26:20.866Z,15.90
2019-04-11T22:28:54.934Z,13.47
2019-04-11T22:31:25.042Z,14.60
2019-04-11T22:34:02.153Z,12.23
2019-04-11T22:36:34.349Z,13.57
2019-04-11T22:39:08.208Z,12.27
2019-04-11T22:41:39.354Z,13.10
2019-04-11T22:44:10.431Z,12.73
2019-04-11T22:46:41.503Z,11.03
2019-04-11T22:49:12.550Z,9.40
2019-04-11T22:51:44.682Z,10.77
2019-04-11T22:54:15.755Z,13.10
2019-04-11T22:56:46.864Z,11.90
2019-04-11T22:59:17.916Z,10.70
2019-04-11T23:01:49.908Z,11.17
2019-04-11T23:04:20.930Z,13.27
2019-04-11T23:06:52.054Z,12.47
2019-04-11T23:09:23.157Z,11.73
2019-04-11T23:11:54.323Z,15.37
2019-04-11T23:14:25.381Z,11.20
2019-04-11T23:16:56.623Z,16.93
2019-04-11T23:19:27.803Z,13.43
2019-04-11T23:21:58.877Z,12.33
2019-04-11T23:24:30.055Z,12.27
2019-04-11T23:27:01.096Z,14.17
2019-04-11T23:29:32.228Z,11.80
2019-04-11T23:32:03.277Z,9.20
2019-04-11T23:34:34.371Z,12.00
2019-04-11T23:37:05.552Z,9.87
2019-04-11T23:39:36.602Z,10.47
2019-04-11T23:42:07.716Z,10.93
2019-04-11T23:44:38.815Z,10.37
2019-04-11T23:47:10.060Z,10.60
2019-04-11T23:49:41.191Z,9.60
2019-04-11T23:52:12.247Z,9.93
2019-04-11T23:54:43.402Z,9.80
2019-04-11T23:57:18.738Z,11.27
2019-04-11T23:59:49.850Z,10.40
